createdAt,value
2023-03-18T00:00:17.910Z,83.15
2023-03-18T00:01:17.609Z,83.29
2023-03-18T00:02:17.800Z,83.29
2023-03-18T00:03:17.783Z,83.29
2023-03-18T00:04:17.713Z,83.29
2023-03-18T00:05:17.728Z,83.09
2023-03-18T00:06:18.069Z,82.76
2023-03-18T00:07:17.793Z,82.96
2023-03-18T00:08:17.830Z,83.00
2023-03-18T00:09:17.851Z,82.96
2023-03-18T00:10:17.894Z,83.00
2023-03-18T00:11:17.912Z,83.09
2023-03-18T00:12:17.948Z,83.00
2023-03-18T00:13:18.266Z,82.76
2023-03-18T00:14:17.997Z,83.00
2023-03-18T00:15:18.036Z,83.00
2023-03-18T00:17:18.087Z,82.96
2023-03-18T00:18:18.144Z,83.29
2023-03-18T00:19:18.150Z,83.58
2023-03-18T00:20:18.535Z,83.44
2023-03-18T00:21:18.229Z,83.48
2023-03-18T00:22:18.259Z,83.58
2023-03-18T00:23:18.262Z,83.48
2023-03-18T00:24:18.399Z,83.48
2023-03-18T00:25:18.325Z,83.73
2023-03-18T00:26:18.352Z,83.44
2023-03-18T00:27:18.699Z,83.39
2023-03-18T00:28:19.017Z,83.48
2023-03-18T00:29:18.439Z,83.48
2023-03-18T00:30:18.462Z,83.39
2023-03-18T00:31:18.539Z,83.77
2023-03-18T00:32:18.541Z,83.53
2023-03-18T00:33:18.670Z,83.67
2023-03-18T00:34:18.906Z,83.58
2023-03-18T00:35:18.631Z,83.44
2023-03-18T00:36:18.660Z,83.48
2023-03-18T00:37:18.673Z,83.48
2023-03-18T00:38:18.712Z,83.73
2023-03-18T00:40:19.067Z,83.34
2023-03-18T00:41:18.792Z,83.67
2023-03-18T00:43:18.955Z,83.58
2023-03-18T00:45:18.909Z,83.58
2023-03-18T00:46:19.024Z,83.48
2023-03-18T00:47:19.264Z,83.67
2023-03-18T00:48:19.008Z,83.53
2023-03-18T00:49:19.037Z,83.48
2023-03-18T00:50:19.075Z,84.21
2023-03-18T00:51:19.092Z,83.19
2023-03-18T00:52:19.136Z,84.21
2023-03-18T00:53:19.155Z,84.01
2023-03-18T00:54:19.472Z,83.83
2023-03-18T00:55:19.368Z,83.67
2023-03-18T00:56:19.244Z,83.77
2023-03-18T00:57:19.259Z,83.92
2023-03-18T00:58:19.286Z,84.01
2023-03-18T00:59:19.332Z,83.96
2023-03-18T01:00:19.354Z,83.63
2023-03-18T01:01:19.740Z,83.86
2023-03-18T01:02:19.477Z,83.77
2023-03-18T01:03:19.449Z,83.77
2023-03-18T01:04:19.476Z,83.86
2023-03-18T01:06:19.544Z,83.92
2023-03-18T01:07:19.601Z,84.11
2023-03-18T01:08:19.884Z,83.83
2023-03-18T01:09:19.623Z,83.77
2023-03-18T01:10:19.639Z,83.96
2023-03-18T01:12:19.726Z,83.92
2023-03-18T01:13:19.733Z,83.92
2023-03-18T01:14:20.177Z,83.92
2023-03-18T01:15:19.798Z,83.92
2023-03-18T01:16:19.842Z,83.92
2023-03-18T01:17:19.850Z,84.01
2023-03-18T01:18:19.886Z,83.86
2023-03-18T01:21:20.291Z,83.86
2023-03-18T01:22:20.143Z,84.40
2023-03-18T01:23:20.035Z,84.59
2023-03-18T01:24:20.057Z,83.92
2023-03-18T01:25:20.082Z,84.01
2023-03-18T01:26:20.138Z,84.16
2023-03-18T01:27:20.457Z,84.16
2023-03-18T01:28:20.176Z,84.30
2023-03-18T01:29:20.197Z,84.21
2023-03-18T01:30:20.236Z,84.11
2023-03-18T01:31:20.436Z,83.92
2023-03-18T01:33:20.626Z,83.96
2023-03-18T01:34:20.350Z,84.34
2023-03-18T01:35:20.388Z,84.54
2023-03-18T01:36:20.399Z,84.59
2023-03-18T01:37:20.442Z,84.50
2023-03-18T01:38:20.481Z,84.30
2023-03-18T01:39:20.499Z,84.01
2023-03-18T01:40:20.819Z,84.30
2023-03-18T01:41:20.649Z,84.30
2023-03-18T01:42:20.581Z,84.01
2023-03-18T01:43:20.613Z,84.01
2023-03-18T01:44:20.646Z,84.25
2023-03-18T01:46:20.997Z,84.44
2023-03-18T01:47:20.724Z,84.44
2023-03-18T01:48:20.791Z,84.30
2023-03-18T01:50:20.817Z,84.50
2023-03-18T01:51:20.847Z,84.21
2023-03-18T01:52:20.867Z,84.34
2023-03-18T01:53:21.250Z,84.21
2023-03-18T01:54:20.947Z,84.59
2023-03-18T01:55:20.958Z,84.40
2023-03-18T01:56:20.999Z,84.98
2023-03-18T01:57:21.013Z,84.88
2023-03-18T01:58:21.041Z,84.88
2023-03-18T01:59:21.078Z,85.17
2023-03-18T02:00:21.397Z,84.88
2023-03-18T02:02:21.160Z,85.07
2023-03-18T02:03:21.188Z,85.17
2023-03-18T02:04:21.229Z,84.98
2023-03-18T02:05:21.248Z,84.78
2023-03-18T02:06:21.287Z,84.78
2023-03-18T02:07:21.609Z,84.78
2023-03-18T02:08:21.337Z,85.07
2023-03-18T02:09:21.363Z,84.98
2023-03-18T02:10:21.413Z,85.07
2023-03-18T02:11:21.431Z,84.69
2023-03-18T02:12:21.454Z,84.69
2023-03-18T02:13:21.491Z,84.98
2023-03-18T02:14:21.814Z,84.59
2023-03-18T02:15:22.293Z,84.88
2023-03-18T02:16:21.629Z,84.88
2023-03-18T02:17:21.598Z,84.69
2023-03-18T02:18:21.628Z,84.88
2023-03-18T02:19:21.661Z,84.88
2023-03-18T02:20:21.706Z,84.59
2023-03-18T02:21:22.034Z,84.88
2023-03-18T02:22:21.748Z,84.88
2023-03-18T02:23:21.783Z,84.59
2023-03-18T02:24:21.809Z,84.50
2023-03-18T02:25:21.845Z,84.88
2023-03-18T02:26:21.887Z,84.98
2023-03-18T02:27:22.029Z,84.78
2023-03-18T02:28:22.222Z,84.98
2023-03-18T02:29:21.946Z,84.50
2023-03-18T02:30:21.978Z,84.78
2023-03-18T02:31:22.068Z,84.50
2023-03-18T02:32:22.049Z,84.98
2023-03-18T02:33:22.092Z,84.98
2023-03-18T02:35:22.463Z,85.07
2023-03-18T02:36:22.255Z,84.98
2023-03-18T02:37:22.186Z,85.07
2023-03-18T02:38:22.211Z,84.98
2023-03-18T02:39:22.257Z,84.98
2023-03-18T02:40:22.270Z,84.78
2023-03-18T02:41:22.615Z,84.78
2023-03-18T02:42:22.354Z,84.78
2023-03-18T02:43:22.361Z,84.98
2023-03-18T02:44:22.386Z,85.17
2023-03-18T02:45:22.421Z,85.75
2023-03-18T02:46:22.536Z,85.94
2023-03-18T02:48:22.503Z,85.46
2023-03-18T02:49:22.532Z,84.78
2023-03-18T02:50:22.567Z,85.65
2023-03-18T02:51:22.598Z,84.69
2023-03-18T02:52:22.624Z,85.27
2023-03-18T02:53:22.965Z,85.36
2023-03-18T02:54:22.688Z,85.36
2023-03-18T02:55:22.742Z,85.17
2023-03-18T02:56:22.743Z,85.36
2023-03-18T02:57:22.768Z,84.98
2023-03-18T02:58:22.826Z,84.88
2023-03-18T02:59:22.852Z,84.88
2023-03-18T03:00:23.178Z,85.07
2023-03-18T03:01:22.949Z,85.17
2023-03-18T03:02:23.008Z,85.17
2023-03-18T03:03:23.245Z,85.07
2023-03-18T03:04:22.982Z,85.27
2023-03-18T03:05:23.009Z,85.46
2023-03-18T03:06:23.033Z,85.46
2023-03-18T03:07:23.363Z,85.46
2023-03-18T03:08:23.107Z,85.46
2023-03-18T03:10:23.148Z,85.46
2023-03-18T03:11:23.179Z,85.46
2023-03-18T03:12:23.209Z,85.65
2023-03-18T03:13:23.247Z,85.46
2023-03-18T03:14:23.696Z,85.94
2023-03-18T03:15:23.320Z,86.04
2023-03-18T03:16:23.341Z,85.94
2023-03-18T03:17:23.358Z,85.84
2023-03-18T03:18:23.388Z,85.94
2023-03-18T03:19:23.421Z,85.84
2023-03-18T03:20:23.446Z,86.32
2023-03-18T03:22:23.817Z,86.22
2023-03-18T03:23:23.535Z,86.42
2023-03-18T03:24:23.568Z,86.13
2023-03-18T03:25:23.599Z,86.32
2023-03-18T03:26:23.629Z,86.32
2023-03-18T03:27:23.651Z,86.52
2023-03-18T03:28:23.674Z,86.42
2023-03-18T03:29:24.004Z,86.61
2023-03-18T03:30:23.775Z,86.32
2023-03-18T03:31:23.821Z,86.32
2023-03-18T03:32:23.804Z,86.32
2023-03-18T03:33:23.827Z,86.32
2023-03-18T03:34:23.860Z,86.32
2023-03-18T03:35:23.885Z,86.32
2023-03-18T03:36:24.219Z,86.90
2023-03-18T03:37:23.940Z,86.61
2023-03-18T03:38:23.981Z,86.90
2023-03-18T03:39:24.069Z,86.52
2023-03-18T03:40:24.023Z,86.52
2023-03-18T03:41:24.062Z,86.52
2023-03-18T03:42:24.083Z,86.99
2023-03-18T03:44:24.199Z,86.71
2023-03-18T03:45:24.173Z,86.71
2023-03-18T03:47:24.255Z,86.80
2023-03-18T03:48:24.262Z,86.71
2023-03-18T03:49:24.299Z,86.61
2023-03-18T03:50:24.621Z,86.61
2023-03-18T03:51:24.349Z,86.80
2023-03-18T03:53:24.406Z,86.61
2023-03-18T03:54:24.437Z,86.61
2023-03-18T03:55:24.463Z,86.61
2023-03-18T03:56:24.492Z,86.61
2023-03-18T03:57:24.825Z,86.42
2023-03-18T03:58:24.552Z,86.52
2023-03-18T03:59:24.580Z,86.71
2023-03-18T04:00:24.616Z,86.52
2023-03-18T04:01:24.643Z,86.61
2023-03-18T04:02:24.682Z,86.61
2023-03-18T04:03:24.717Z,86.71
2023-03-18T04:04:25.067Z,86.61
2023-03-18T04:05:25.002Z,86.42
2023-03-18T04:06:24.802Z,86.71
2023-03-18T04:07:24.812Z,86.61
2023-03-18T04:08:24.838Z,86.52
2023-03-18T04:09:24.868Z,86.61
2023-03-18T04:10:24.898Z,86.99
2023-03-18T04:11:25.225Z,86.90
2023-03-18T04:12:24.970Z,87.19
2023-03-18T04:14:25.016Z,87.19
2023-03-18T04:15:25.658Z,86.71
2023-03-18T04:16:25.206Z,86.61
2023-03-18T04:17:25.107Z,86.61
2023-03-18T04:18:25.458Z,86.71
2023-03-18T04:19:25.181Z,86.80
2023-03-18T04:20:25.191Z,86.61
2023-03-18T04:21:25.319Z,86.61
2023-03-18T04:22:25.244Z,87.19
2023-03-18T04:23:25.272Z,86.71
2023-03-18T04:24:25.300Z,86.71
2023-03-18T04:26:25.662Z,87.29
2023-03-18T04:27:25.391Z,86.90
2023-03-18T04:28:25.447Z,86.61
2023-03-18T04:29:25.444Z,86.71
2023-03-18T04:30:25.527Z,86.61
2023-03-18T04:31:25.552Z,86.80
2023-03-18T04:32:25.539Z,86.71
2023-03-18T04:33:25.864Z,86.61
2023-03-18T04:34:25.595Z,86.61
2023-03-18T04:35:25.655Z,86.71
2023-03-18T04:36:25.649Z,86.52
2023-03-18T04:37:25.692Z,86.61
2023-03-18T04:38:25.716Z,86.61
2023-03-18T04:39:25.748Z,86.61
2023-03-18T04:40:26.090Z,86.61
2023-03-18T04:41:25.805Z,87.19
2023-03-18T04:42:25.842Z,86.71
2023-03-18T04:43:25.859Z,86.66
2023-03-18T04:44:25.885Z,86.61
2023-03-18T04:45:25.907Z,86.99
2023-03-18T04:46:26.008Z,86.52
2023-03-18T04:47:26.275Z,86.61
2023-03-18T04:48:25.997Z,86.47
2023-03-18T04:49:26.027Z,86.90
2023-03-18T04:50:26.069Z,86.61
2023-03-18T04:51:26.105Z,86.66
2023-03-18T04:52:26.125Z,86.85
2023-03-18T04:53:26.144Z,86.66
2023-03-18T04:54:26.469Z,87.19
2023-03-18T04:55:26.496Z,87.24
2023-03-18T04:56:26.231Z,86.90
2023-03-18T04:57:26.259Z,86.57
2023-03-18T04:58:26.316Z,87.05
2023-03-18T04:59:26.327Z,87.09
2023-03-18T05:00:26.343Z,86.99
2023-03-18T05:01:26.673Z,87.09
2023-03-18T05:02:26.406Z,87.05
2023-03-18T05:03:26.436Z,86.95
2023-03-18T05:04:26.479Z,86.95
2023-03-18T05:05:26.490Z,86.57
2023-03-18T05:06:26.522Z,87.05
2023-03-18T05:07:26.659Z,86.57
2023-03-18T05:08:26.892Z,86.90
2023-03-18T05:09:26.613Z,86.61
2023-03-18T05:10:26.647Z,87.24
2023-03-18T05:11:26.679Z,87.24
2023-03-18T05:12:26.694Z,87.15
2023-03-18T05:13:26.728Z,86.57
2023-03-18T05:14:26.772Z,86.85
2023-03-18T05:15:27.085Z,87.34
2023-03-18T05:16:26.859Z,87.15
2023-03-18T05:17:26.876Z,86.61
2023-03-18T05:18:26.875Z,86.57
2023-03-18T05:19:26.914Z,86.85
2023-03-18T05:20:26.923Z,86.47
2023-03-18T05:21:28.321Z,86.57
2023-03-18T05:22:27.288Z,86.76
2023-03-18T05:23:27.069Z,86.47
2023-03-18T05:24:27.041Z,86.85
2023-03-18T05:25:27.086Z,86.57
2023-03-18T05:26:27.142Z,86.38
2023-03-18T05:27:27.200Z,86.47
2023-03-18T05:28:27.467Z,86.76
2023-03-18T05:29:27.204Z,86.57
2023-03-18T05:31:27.285Z,87.05
2023-03-18T05:32:27.353Z,86.95
2023-03-18T05:33:27.310Z,86.95
2023-03-18T05:34:27.656Z,87.05
2023-03-18T05:35:27.360Z,87.34
2023-03-18T05:36:27.385Z,87.48
2023-03-18T05:37:27.419Z,87.34
2023-03-18T05:38:27.448Z,87.43
2023-03-18T05:39:27.639Z,87.67
2023-03-18T05:42:28.562Z,87.43
2023-03-18T05:43:27.586Z,87.34
2023-03-18T05:44:27.625Z,87.24
2023-03-18T05:45:27.655Z,87.48
2023-03-18T05:46:27.729Z,87.62
2023-03-18T05:47:27.955Z,86.95
2023-03-18T05:48:28.754Z,87.15
2023-03-18T05:49:27.765Z,86.99
2023-03-18T05:50:27.801Z,86.90
2023-03-18T05:52:28.034Z,86.95
2023-03-18T05:53:27.910Z,87.19
2023-03-18T05:54:28.209Z,87.09
2023-03-18T05:55:27.955Z,87.48
2023-03-18T05:56:27.978Z,87.09
2023-03-18T05:57:28.013Z,87.19
2023-03-18T05:58:28.024Z,87.29
2023-03-18T05:59:28.052Z,87.09
2023-03-18T06:00:28.083Z,87.05
2023-03-18T06:01:28.451Z,87.43
2023-03-18T06:02:28.189Z,87.05
2023-03-18T06:03:28.265Z,86.85
2023-03-18T06:04:28.198Z,86.85
2023-03-18T06:05:28.234Z,87.05
2023-03-18T06:06:28.328Z,86.99
2023-03-18T06:07:28.298Z,86.99
2023-03-18T06:08:28.727Z,86.90
2023-03-18T06:09:28.343Z,86.99
2023-03-18T06:10:28.384Z,86.99
2023-03-18T06:11:28.420Z,86.99
2023-03-18T06:12:28.432Z,86.99
2023-03-18T06:13:28.463Z,87.09
2023-03-18T06:14:28.487Z,87.19
2023-03-18T06:15:28.837Z,87.29
2023-03-18T06:16:28.558Z,87.29
2023-03-18T06:17:28.579Z,86.80
2023-03-18T06:18:28.606Z,87.29
2023-03-18T06:19:28.636Z,87.09
2023-03-18T06:20:28.665Z,87.15
2023-03-18T06:21:28.690Z,87.09
2023-03-18T06:22:29.019Z,86.99
2023-03-18T06:24:28.813Z,86.90
2023-03-18T06:25:28.808Z,86.99
2023-03-18T06:26:28.848Z,87.19
2023-03-18T06:27:28.884Z,86.99
2023-03-18T06:28:28.916Z,87.09
2023-03-18T06:29:29.225Z,86.99
2023-03-18T06:30:28.959Z,86.99
2023-03-18T06:32:29.082Z,86.99
2023-03-18T06:33:29.035Z,86.99
2023-03-18T06:34:29.072Z,87.19
2023-03-18T06:35:29.097Z,87.38
2023-03-18T06:36:29.506Z,87.38
2023-03-18T06:37:29.251Z,87.09
2023-03-18T06:38:29.183Z,87.29
2023-03-18T06:39:29.213Z,86.99
2023-03-18T06:40:29.242Z,86.99
2023-03-18T06:41:29.281Z,87.19
2023-03-18T06:42:29.348Z,87.09
2023-03-18T06:43:29.651Z,87.38
2023-03-18T06:44:29.365Z,87.48
2023-03-18T06:45:29.490Z,86.90
2023-03-18T06:46:29.559Z,86.99
2023-03-18T06:47:29.456Z,86.99
2023-03-18T06:48:29.482Z,86.99
2023-03-18T06:49:29.507Z,87.09
2023-03-18T06:50:29.839Z,87.29
2023-03-18T06:51:29.571Z,87.09
2023-03-18T06:52:29.605Z,86.99
2023-03-18T06:53:29.620Z,86.52
2023-03-18T06:54:29.652Z,86.61
2023-03-18T06:55:29.677Z,86.52
2023-03-18T06:56:29.759Z,86.61
2023-03-18T06:57:30.044Z,86.52
2023-03-18T06:58:29.765Z,86.90
2023-03-18T06:59:29.815Z,86.42
2023-03-18T07:00:29.894Z,86.61
2023-03-18T07:01:29.930Z,86.52
2023-03-18T07:02:29.877Z,86.52
2023-03-18T07:03:29.915Z,86.61
2023-03-18T07:04:30.293Z,86.61
2023-03-18T07:05:29.975Z,86.80
2023-03-18T07:06:30.006Z,86.71
2023-03-18T07:07:30.029Z,86.71
2023-03-18T07:08:30.052Z,86.52
2023-03-18T07:09:30.081Z,86.71
2023-03-18T07:10:30.214Z,86.71
2023-03-18T07:11:30.438Z,86.90
2023-03-18T07:12:30.171Z,86.99
2023-03-18T07:13:30.196Z,86.99
2023-03-18T07:14:30.223Z,87.09
2023-03-18T07:16:30.485Z,86.99
2023-03-18T07:17:30.312Z,86.80
2023-03-18T07:18:30.639Z,86.32
2023-03-18T07:19:30.369Z,86.32
2023-03-18T07:20:30.443Z,86.42
2023-03-18T07:21:30.430Z,86.52
2023-03-18T07:22:30.474Z,86.13
2023-03-18T07:24:30.772Z,86.32
2023-03-18T07:25:30.908Z,86.13
2023-03-18T07:26:30.578Z,86.22
2023-03-18T07:27:30.602Z,86.13
2023-03-18T07:28:30.646Z,86.04
2023-03-18T07:29:30.659Z,86.36
2023-03-18T07:30:31.002Z,86.04
2023-03-18T07:31:30.747Z,86.42
2023-03-18T07:32:30.845Z,86.36
2023-03-18T07:33:30.840Z,86.46
2023-03-18T07:34:30.813Z,86.52
2023-03-18T07:35:31.389Z,86.36
2023-03-18T07:36:31.166Z,86.42
2023-03-18T07:37:30.893Z,86.46
2023-03-18T07:39:30.953Z,85.98
2023-03-18T07:41:31.013Z,86.08
2023-03-18T07:42:31.037Z,86.08
2023-03-18T07:43:31.370Z,85.94
2023-03-18T07:44:31.110Z,85.94
2023-03-18T07:45:31.463Z,86.04
2023-03-18T07:46:31.195Z,85.94
2023-03-18T07:47:31.195Z,85.78
2023-03-18T07:48:31.249Z,85.98
2023-03-18T07:49:31.240Z,85.88
2023-03-18T07:50:31.578Z,85.69
2023-03-18T07:51:31.307Z,86.08
2023-03-18T07:52:31.338Z,85.98
2023-03-18T07:53:31.359Z,85.78
2023-03-18T07:54:31.400Z,86.27
2023-03-18T07:56:31.744Z,86.46
2023-03-18T07:57:31.493Z,85.88
2023-03-18T07:58:31.510Z,85.88
2023-03-18T07:59:31.544Z,85.88
2023-03-18T08:00:31.564Z,86.08
2023-03-18T08:01:31.775Z,86.08
2023-03-18T08:03:32.001Z,86.08
2023-03-18T08:04:32.045Z,85.78
2023-03-18T08:05:32.061Z,85.88
2023-03-18T08:06:31.755Z,85.88
2023-03-18T08:07:31.780Z,85.78
2023-03-18T08:08:31.797Z,85.98
2023-03-18T08:09:31.842Z,86.08
2023-03-18T08:10:32.158Z,86.08
2023-03-18T08:11:31.893Z,86.08
2023-03-18T08:12:45.382Z,85.98
2023-03-18T08:13:31.953Z,85.78
2023-03-18T08:14:32.012Z,85.78
2023-03-18T08:15:32.340Z,85.60
2023-03-18T08:16:32.080Z,86.08
2023-03-18T08:17:32.376Z,85.98
2023-03-18T08:18:32.097Z,85.98
2023-03-18T08:19:32.127Z,85.88
2023-03-18T08:20:32.269Z,85.69
2023-03-18T08:21:32.292Z,85.78
2023-03-18T08:22:32.208Z,86.08
2023-03-18T08:25:32.625Z,85.50
2023-03-18T08:26:32.403Z,85.31
2023-03-18T08:27:32.357Z,84.92
2023-03-18T08:28:32.390Z,84.92
2023-03-18T08:29:32.414Z,85.11
2023-03-18T08:30:32.443Z,85.31
2023-03-18T08:31:32.835Z,85.50
2023-03-18T08:32:32.618Z,85.31
2023-03-18T08:33:32.539Z,85.16
2023-03-18T08:34:32.566Z,85.54
2023-03-18T08:35:32.947Z,85.50
2023-03-18T08:36:32.681Z,85.31
2023-03-18T08:37:32.710Z,85.44
2023-03-18T08:38:32.684Z,85.54
2023-03-18T08:39:32.712Z,85.25
2023-03-18T08:40:32.736Z,85.35
2023-03-18T08:41:32.768Z,85.64
2023-03-18T08:44:33.154Z,84.87
2023-03-18T08:45:33.158Z,84.67
2023-03-18T08:46:32.917Z,84.77
2023-03-18T08:47:33.055Z,84.97
2023-03-18T08:48:32.983Z,85.06
2023-03-18T08:49:33.014Z,85.25
2023-03-18T08:50:33.344Z,84.97
2023-03-18T08:51:33.073Z,84.97
2023-03-18T08:52:33.130Z,84.58
2023-03-18T08:53:33.132Z,84.48
2023-03-18T08:54:33.169Z,84.29
2023-03-18T08:55:33.355Z,84.39
2023-03-18T08:56:33.524Z,84.29
2023-03-18T08:57:33.249Z,84.58
2023-03-18T08:58:33.280Z,84.29
2023-03-18T09:00:33.377Z,84.58
2023-03-18T09:01:33.482Z,84.58
2023-03-18T09:02:33.439Z,84.67
2023-03-18T09:03:33.830Z,84.58
2023-03-18T09:04:33.605Z,84.58
2023-03-18T09:05:33.880Z,84.58
2023-03-18T09:06:33.525Z,84.39
2023-03-18T09:07:33.557Z,84.48
2023-03-18T09:08:33.605Z,84.39
2023-03-18T09:09:43.223Z,84.48
2023-03-18T09:10:34.038Z,84.00
2023-03-18T09:11:33.678Z,84.10
2023-03-18T09:12:33.701Z,84.19
2023-03-18T09:13:33.823Z,84.00
2023-03-18T09:14:33.756Z,84.10
2023-03-18T09:15:34.481Z,84.00
2023-03-18T09:16:33.875Z,84.10
2023-03-18T09:17:50.932Z,84.19
2023-03-18T09:18:33.885Z,84.19
2023-03-18T09:19:33.907Z,84.39
2023-03-18T09:20:33.943Z,84.00
2023-03-18T09:22:33.995Z,84.48
2023-03-18T09:23:34.025Z,84.39
2023-03-18T09:24:34.371Z,84.10
2023-03-18T09:25:34.644Z,84.19
2023-03-18T09:26:34.113Z,84.10
2023-03-18T09:27:34.448Z,84.39
2023-03-18T09:28:34.168Z,84.29
2023-03-18T09:29:34.200Z,84.00
2023-03-18T09:30:34.285Z,84.19
2023-03-18T09:31:34.663Z,84.19
2023-03-18T09:32:34.292Z,84.58
2023-03-18T09:33:34.372Z,84.00
2023-03-18T09:34:34.470Z,83.81
2023-03-18T09:35:34.809Z,84.10
2023-03-18T09:36:34.415Z,84.10
2023-03-18T09:37:34.472Z,84.58
2023-03-18T09:38:34.777Z,84.00
2023-03-18T09:40:36.293Z,84.23
2023-03-18T09:41:34.568Z,84.23
2023-03-18T09:42:34.592Z,84.23
2023-03-18T09:44:34.646Z,84.39
2023-03-18T09:45:34.990Z,84.39
2023-03-18T09:46:34.854Z,84.43
2023-03-18T09:47:34.740Z,84.58
2023-03-18T09:48:34.763Z,84.39
2023-03-18T09:49:34.809Z,84.58
2023-03-18T09:50:34.828Z,83.75
2023-03-18T09:51:34.885Z,84.05
2023-03-18T09:52:34.891Z,84.43
2023-03-18T09:53:34.925Z,84.43
2023-03-18T09:54:34.949Z,84.23
2023-03-18T09:55:34.980Z,84.48
2023-03-18T09:56:35.024Z,84.33
2023-03-18T09:57:35.059Z,84.23
2023-03-18T09:58:35.369Z,84.53
2023-03-18T09:59:35.109Z,84.62
2023-03-18T10:00:35.131Z,84.62
2023-03-18T10:01:35.203Z,84.43
2023-03-18T10:02:35.197Z,84.43
2023-03-18T10:03:35.255Z,84.62
2023-03-18T10:04:35.550Z,84.43
2023-03-18T10:05:35.295Z,84.43
2023-03-18T10:06:35.412Z,84.72
2023-03-18T10:07:35.373Z,84.05
2023-03-18T10:08:36.445Z,84.72
2023-03-18T10:09:35.400Z,84.62
2023-03-18T10:10:35.737Z,84.14
2023-03-18T10:11:35.492Z,84.14
2023-03-18T10:12:35.534Z,83.95
2023-03-18T10:13:35.519Z,83.95
2023-03-18T10:14:36.456Z,83.95
2023-03-18T10:15:36.050Z,84.05
2023-03-18T10:16:35.941Z,84.05
2023-03-18T10:17:35.689Z,84.05
2023-03-18T10:18:35.667Z,84.05
2023-03-18T10:19:35.711Z,84.23
2023-03-18T10:20:35.733Z,83.95
2023-03-18T10:21:35.763Z,84.05
2023-03-18T10:22:35.815Z,83.75
2023-03-18T10:23:36.154Z,84.53
2023-03-18T10:24:35.872Z,84.05
2023-03-18T10:25:36.110Z,84.14
2023-03-18T10:26:35.968Z,83.75
2023-03-18T10:27:35.952Z,83.95
2023-03-18T10:28:36.084Z,84.05
2023-03-18T10:29:36.056Z,84.33
2023-03-18T10:30:36.340Z,83.56
2023-03-18T10:31:36.171Z,83.85
2023-03-18T10:35:36.383Z,83.75
2023-03-18T10:36:36.230Z,83.85
2023-03-18T10:37:36.564Z,83.56
2023-03-18T10:38:36.366Z,83.66
2023-03-18T10:39:36.421Z,84.05
2023-03-18T10:40:36.416Z,84.05
2023-03-18T10:41:36.380Z,83.37
2023-03-18T10:42:36.410Z,83.95
2023-03-18T10:43:36.473Z,83.18
2023-03-18T10:44:38.500Z,83.18
2023-03-18T10:45:38.246Z,83.37
2023-03-18T10:46:38.054Z,83.08
2023-03-18T10:47:37.859Z,82.89
2023-03-18T10:48:39.110Z,83.28
2023-03-18T10:49:36.721Z,82.98
2023-03-18T10:50:36.915Z,83.18
2023-03-18T10:51:36.976Z,83.08
2023-03-18T10:52:36.766Z,83.08
2023-03-18T10:54:36.768Z,83.03
2023-03-18T10:55:36.802Z,82.93
2023-03-18T10:56:36.862Z,82.98
2023-03-18T10:57:36.864Z,82.98
2023-03-18T10:58:37.201Z,82.79
2023-03-18T10:59:37.230Z,83.08
2023-03-18T11:00:36.968Z,82.79
2023-03-18T11:01:37.030Z,83.08
2023-03-18T11:02:37.101Z,82.79
2023-03-18T11:03:37.053Z,83.18
2023-03-18T11:04:37.074Z,82.60
2023-03-18T11:05:37.433Z,82.89
2023-03-18T11:06:37.132Z,82.98
2023-03-18T11:07:37.174Z,82.31
2023-03-18T11:08:37.200Z,82.89
2023-03-18T11:09:37.232Z,82.41
2023-03-18T11:10:37.260Z,82.89
2023-03-18T11:11:37.283Z,83.08
2023-03-18T11:12:37.613Z,82.21
2023-03-18T11:13:37.355Z,82.41
2023-03-18T11:14:37.536Z,82.50
2023-03-18T11:16:37.452Z,82.50
2023-03-18T11:18:37.799Z,82.60
2023-03-18T11:19:37.580Z,82.70
2023-03-18T11:20:37.562Z,82.50
2023-03-18T11:21:37.599Z,82.60
2023-03-18T11:22:37.622Z,82.02
2023-03-18T11:24:38.071Z,82.35
2023-03-18T11:25:37.707Z,82.26
2023-03-18T11:26:37.745Z,82.21
2023-03-18T11:27:37.838Z,82.16
2023-03-18T11:28:37.855Z,81.77
2023-03-18T11:29:37.831Z,81.58
2023-03-18T11:30:38.222Z,81.87
2023-03-18T11:31:37.985Z,81.58
2023-03-18T11:32:38.016Z,81.39
2023-03-18T11:33:38.011Z,81.68
2023-03-18T11:34:38.004Z,81.58
2023-03-18T11:35:38.246Z,81.96
2023-03-18T11:36:38.346Z,81.68
2023-03-18T11:37:38.085Z,81.68
2023-03-18T11:38:38.157Z,81.68
2023-03-18T11:39:38.148Z,81.10
2023-03-18T11:40:38.167Z,81.20
2023-03-18T11:41:38.208Z,81.68
2023-03-18T11:42:38.280Z,81.48
2023-03-18T11:43:38.582Z,81.68
2023-03-18T11:44:38.296Z,81.29
2023-03-18T11:45:38.349Z,81.39
2023-03-18T11:46:38.422Z,81.10
2023-03-18T11:47:38.390Z,81.20
2023-03-18T11:48:38.440Z,81.10
2023-03-18T11:49:38.457Z,81.39
2023-03-18T11:50:38.773Z,80.91
2023-03-18T11:51:38.576Z,81.10
2023-03-18T11:52:38.540Z,81.10
2023-03-18T11:53:38.563Z,80.91
2023-03-18T11:55:38.627Z,80.94
2023-03-18T11:57:38.990Z,80.94
2023-03-18T11:58:38.728Z,81.10
2023-03-18T11:59:38.805Z,80.91
2023-03-18T12:00:38.784Z,80.91
2023-03-18T12:01:38.825Z,80.66
2023-03-18T12:02:38.869Z,80.85
2023-03-18T12:04:39.333Z,81.04
2023-03-18T12:05:38.943Z,80.85
2023-03-18T12:06:38.988Z,80.46
2023-03-18T12:07:39.019Z,80.66
2023-03-18T12:08:39.026Z,80.37
2023-03-18T12:09:39.055Z,80.56
2023-03-18T12:10:39.098Z,80.46
2023-03-18T12:11:39.120Z,80.37
2023-03-18T12:12:39.153Z,80.56
2023-03-18T12:13:39.181Z,80.27
2023-03-18T12:14:39.219Z,80.27
2023-03-18T12:15:39.269Z,80.18
2023-03-18T12:16:39.349Z,79.79
2023-03-18T12:17:39.614Z,79.98
2023-03-18T12:18:42.347Z,79.89
2023-03-18T12:19:39.369Z,79.89
2023-03-18T12:20:39.420Z,79.79
2023-03-18T12:21:39.438Z,79.98
2023-03-18T12:22:39.458Z,79.98
2023-03-18T12:23:39.505Z,79.89
2023-03-18T12:24:39.829Z,79.69
2023-03-18T12:25:39.582Z,79.50
2023-03-18T12:26:39.587Z,79.69
2023-03-18T12:27:39.621Z,79.31
2023-03-18T12:28:39.650Z,79.60
2023-03-18T12:29:39.689Z,79.50
2023-03-18T12:30:39.723Z,79.60
2023-03-18T12:31:40.254Z,79.31
2023-03-18T12:32:39.818Z,79.31
2023-03-18T12:33:39.804Z,79.60
2023-03-18T12:34:39.845Z,79.41
2023-03-18T12:35:39.956Z,79.69
2023-03-18T12:36:39.927Z,79.11
2023-03-18T12:37:39.933Z,79.69
2023-03-18T12:38:40.264Z,79.60
2023-03-18T12:39:40.015Z,79.54
2023-03-18T12:40:40.043Z,78.96
2023-03-18T12:41:40.059Z,79.06
2023-03-18T12:42:40.089Z,79.06
2023-03-18T12:43:40.122Z,79.11
2023-03-18T12:44:40.163Z,79.25
2023-03-18T12:45:40.526Z,79.25
2023-03-18T12:46:40.266Z,78.77
2023-03-18T12:47:40.247Z,78.86
2023-03-18T12:48:44.471Z,79.06
2023-03-18T12:49:40.316Z,79.06
2023-03-18T12:50:40.346Z,79.06
2023-03-18T12:51:40.672Z,78.86
2023-03-18T12:52:40.424Z,78.77
2023-03-18T12:53:40.436Z,78.86
2023-03-18T12:54:40.487Z,78.77
2023-03-18T12:55:40.515Z,78.96
2023-03-18T12:56:40.539Z,79.21
2023-03-18T12:57:40.871Z,78.92
2023-03-18T12:58:40.594Z,79.02
2023-03-18T13:00:40.677Z,79.11
2023-03-18T13:01:40.719Z,79.25
2023-03-18T13:02:40.816Z,79.11
2023-03-18T13:03:40.759Z,79.02
2023-03-18T13:04:40.784Z,78.92
2023-03-18T13:05:40.822Z,79.02
2023-03-18T13:06:40.861Z,79.02
2023-03-18T13:07:40.875Z,79.02
2023-03-18T13:08:40.921Z,79.41
2023-03-18T13:09:41.565Z,78.96
2023-03-18T13:10:40.960Z,78.73
2023-03-18T13:11:40.991Z,79.16
2023-03-18T13:12:41.038Z,78.77
2023-03-18T13:13:41.060Z,79.25
2023-03-18T13:14:41.172Z,79.21
2023-03-18T13:15:41.116Z,79.21
2023-03-18T13:16:41.517Z,79.11
2023-03-18T13:17:41.201Z,79.11
2023-03-18T13:18:41.215Z,79.11
2023-03-18T13:19:41.241Z,79.41
2023-03-18T13:20:41.279Z,79.60
2023-03-18T13:21:41.316Z,79.69
2023-03-18T13:22:41.352Z,79.50
2023-03-18T13:23:41.667Z,79.02
2023-03-18T13:24:41.420Z,79.41
2023-03-18T13:25:41.427Z,79.50
2023-03-18T13:26:41.470Z,79.31
2023-03-18T13:27:41.504Z,79.41
2023-03-18T13:28:41.566Z,79.69
2023-03-18T13:29:43.481Z,79.31
2023-03-18T13:30:41.633Z,79.50
2023-03-18T13:31:41.621Z,79.02
2023-03-18T13:32:41.681Z,79.60
2023-03-18T13:33:41.680Z,79.41
2023-03-18T13:34:41.713Z,79.50
2023-03-18T13:36:42.098Z,79.60
2023-03-18T13:37:41.806Z,79.41
2023-03-18T13:38:41.869Z,79.50
2023-03-18T13:39:41.887Z,80.18
2023-03-18T13:40:42.965Z,80.08
2023-03-18T13:41:41.937Z,79.98
2023-03-18T13:42:42.267Z,79.98
2023-03-18T13:43:41.988Z,79.98
2023-03-18T13:45:42.063Z,80.46
2023-03-18T13:46:42.105Z,80.46